CYCY

Details ICAO CYCY (YCY)
Name CLYDE RIVER
Region Canada
Timezone America/Iqaluit (UTC-5.0)
Plans Departing 5
Arriving 4
Stats Elevation 87 ft / 27 m (AMSL)
Location 70.486114° -68.516529°
Runways 1
Magnetic Variation 35.672° W
Sunrise Unknown / Unknown
Sunset Unknown / Unknown
Advertisement - Login to hide

Runways

ID Width Length Bearing (true) Bearing (mag) Surface Threshold Offset Overrun Length
02T 100 ft / 30 m 3,623 ft / 1,104 m 17.95° 53.62° Gravel 0 ft / 0 m 0 ft / 0 m
20T 100 ft / 30 m 3,623 ft / 1,104 m 197.96° 233.63° Gravel 0 ft / 0 m 0 ft / 0 m

Map

Weather


0- 5 10 15 20 25 30 35+ Temperature / ° C

Clouds and Precipitation
Forecast for 2017-12-17 00:00 UTC. Updated 2 hours ago

Ground ~20,000 ft ~40,000 ft Winds

METAR

CYCY 170000Z AUTO 31017KT 9SM -SN OVC085 M18/M21 A2939 RMK SLP959

TAF

TAF CYCY 170038Z 1701/1713 32020KT P6SM -SN OVC070 TEMPO 1701/1708 4SM BLSN FM170800 31008KT P6SM -SN BKN080 RMK FCST BASED ON AUTO OBS. NXT FCST BY 170700Z

Frequencies

Recorded 124.60 MHz AWOS
Unicom 122.10 MHz MANDATORY FREQ
Warning: Do not use this data for real-world aviation or navigation. No guarantee of current accuracy is given.